Atkins, Virginia
Current Conditions -  °F | °C
As of 10:35 AM on Friday 24 Oct 2014 (Local Time) from KMKJ Reporting Station
Clear Clear  
Wind Chill: 45°   Ceiling: Unl
Heat Index: 48°   Visibility: 10mi
Dew Point: 43°   Wind: 8mph
Humidity: 81%   Direction: 240°WSW
Pressure: 30.16"   Gusts: NA
Location:  36.87°N, 81.4°W
Report Text: KMKJ 241435Z AUTO 24007KT 10SM CLR 09/06 A3016 RMK AO2 T00900059
Loading
Personal Weather Stations






























Interactive Weather Map New forecast layout! Learn more

10-Day Weather Forecast

Advertisements
Track Severe Weather on mobile